createdAt,value
2023-01-29T00:01:22.783Z,10.77
2023-01-29T00:03:51.378Z,9.18
2023-01-29T00:06:18.121Z,12.10
2023-01-29T00:08:44.542Z,11.15
2023-01-29T00:11:10.935Z,9.93
2023-01-29T00:13:37.299Z,10.65
2023-01-29T00:16:04.171Z,9.55
2023-01-29T00:18:31.367Z,8.93
2023-01-29T00:20:57.901Z,11.18
2023-01-29T00:23:24.909Z,12.88
2023-01-29T00:25:51.274Z,11.02
2023-01-29T00:28:17.710Z,10.15
2023-01-29T00:30:44.055Z,9.47
2023-01-29T00:33:11.847Z,10.18
2023-01-29T00:35:40.197Z,10.90
2023-01-29T00:38:06.781Z,10.02
2023-01-29T00:40:55.746Z,10.15
2023-01-29T00:43:40.492Z,8.83
2023-01-29T00:46:06.968Z,9.57
2023-01-29T00:48:34.312Z,9.10
2023-01-29T00:51:02.064Z,9.35
2023-01-29T00:53:29.222Z,9.35
2023-01-29T00:55:55.941Z,9.80
2023-01-29T00:58:22.478Z,10.63
2023-01-29T01:00:49.330Z,9.68
2023-01-29T01:03:16.213Z,8.98
2023-01-29T01:05:42.951Z,10.20
2023-01-29T01:08:29.184Z,11.17
2023-01-29T01:11:05.109Z,9.82
2023-01-29T01:13:33.213Z,9.57
2023-01-29T01:16:00.264Z,10.18
2023-01-29T01:18:31.654Z,9.38
2023-01-29T01:20:58.590Z,11.00
2023-01-29T01:23:25.230Z,11.45
2023-01-29T01:25:51.595Z,9.48
2023-01-29T01:28:18.004Z,10.93
2023-01-29T01:30:44.613Z,106.90
2023-01-29T01:33:11.000Z,56.17
2023-01-29T01:35:38.639Z,18.80
2023-01-29T01:38:05.006Z,12.35
2023-01-29T01:40:31.574Z,12.43
2023-01-29T01:43:00.743Z,12.00
2023-01-29T01:45:31.735Z,13.17
2023-01-29T01:48:21.883Z,13.88
2023-01-29T01:50:53.818Z,10.10
2023-01-29T01:53:27.369Z,11.00
2023-01-29T01:56:01.341Z,9.55
2023-01-29T01:58:33.343Z,11.77
2023-01-29T02:01:00.168Z,10.52
2023-01-29T02:03:47.227Z,11.25
2023-01-29T02:06:31.919Z,11.35
2023-01-29T02:09:23.760Z,13.35
2023-01-29T02:11:50.926Z,12.17
2023-01-29T02:14:17.300Z,13.20
2023-01-29T02:16:43.660Z,10.38
2023-01-29T02:19:24.402Z,10.43
2023-01-29T02:22:07.831Z,9.80
2023-01-29T02:24:34.246Z,10.20
2023-01-29T02:27:15.306Z,10.85
2023-01-29T02:29:58.057Z,9.02
2023-01-29T02:32:42.111Z,11.77
2023-01-29T02:35:46.399Z,10.30
2023-01-29T02:38:34.555Z,10.00
2023-01-29T02:41:25.603Z,9.07
2023-01-29T02:43:59.416Z,10.57
2023-01-29T02:46:35.486Z,9.68
2023-01-29T02:49:10.107Z,10.18
2023-01-29T02:51:44.694Z,10.63
2023-01-29T02:54:22.851Z,9.40
2023-01-29T02:56:58.712Z,10.95
2023-01-29T02:59:36.474Z,11.30
2023-01-29T03:02:10.294Z,9.80
2023-01-29T03:04:45.638Z,9.13
2023-01-29T03:07:41.126Z,9.15
2023-01-29T03:10:19.136Z,8.20
2023-01-29T03:12:51.977Z,11.52
2023-01-29T03:15:25.186Z,9.13
2023-01-29T03:18:01.526Z,9.10
2023-01-29T03:20:39.918Z,9.32
2023-01-29T03:23:14.519Z,8.02
2023-01-29T03:26:02.384Z,8.65
2023-01-29T03:28:48.694Z,10.25
2023-01-29T03:31:36.521Z,9.53
2023-01-29T03:34:24.004Z,10.25
2023-01-29T03:37:02.205Z,8.48
2023-01-29T03:39:29.629Z,10.52
2023-01-29T03:42:04.428Z,10.25
2023-01-29T03:45:00.365Z,9.13
2023-01-29T03:47:54.998Z,9.95
2023-01-29T03:50:48.129Z,10.35
2023-01-29T03:53:26.113Z,8.52
2023-01-29T03:56:20.830Z,8.60
2023-01-29T03:59:00.793Z,9.87
2023-01-29T04:01:48.495Z,10.30
2023-01-29T04:04:22.461Z,10.25
2023-01-29T04:06:53.029Z,9.43
2023-01-29T04:09:32.231Z,11.27
2023-01-29T04:12:10.984Z,9.93
2023-01-29T04:14:38.391Z,10.80
2023-01-29T04:17:12.441Z,9.23
2023-01-29T04:19:39.278Z,10.80
2023-01-29T04:22:25.379Z,10.57
2023-01-29T04:24:51.873Z,12.37
2023-01-29T04:27:40.002Z,11.95
2023-01-29T04:30:30.807Z,12.73
2023-01-29T04:33:17.371Z,11.13
2023-01-29T04:36:00.077Z,11.75
2023-01-29T04:38:51.519Z,13.10
2023-01-29T04:41:25.801Z,13.52
2023-01-29T04:44:01.555Z,10.75
2023-01-29T04:46:33.474Z,9.75
2023-01-29T04:49:18.366Z,10.10
2023-01-29T04:51:56.649Z,10.30
2023-01-29T04:54:23.343Z,9.68
2023-01-29T04:57:06.781Z,10.80
2023-01-29T04:59:41.978Z,12.05
2023-01-29T05:02:11.701Z,10.82
2023-01-29T05:04:41.149Z,10.37
2023-01-29T05:07:13.725Z,12.93
2023-01-29T05:09:43.951Z,14.20
2023-01-29T05:12:14.093Z,14.65
2023-01-29T05:14:44.456Z,12.30
2023-01-29T05:17:16.309Z,10.80
2023-01-29T05:19:42.852Z,11.73
2023-01-29T05:22:12.926Z,15.15
2023-01-29T05:24:39.266Z,12.05
2023-01-29T05:27:24.307Z,12.43
2023-01-29T05:29:50.655Z,12.03
2023-01-29T05:32:17.131Z,14.00
2023-01-29T05:34:43.478Z,16.17
2023-01-29T05:37:10.478Z,15.93
2023-01-29T05:39:36.847Z,14.68
2023-01-29T05:42:03.356Z,15.07
2023-01-29T05:44:29.711Z,14.63
2023-01-29T05:46:56.092Z,13.95
2023-01-29T05:49:22.661Z,13.85
2023-01-29T05:51:49.089Z,14.52
2023-01-29T05:54:15.471Z,14.67
2023-01-29T05:56:41.850Z,14.50
2023-01-29T05:59:08.392Z,13.48
2023-01-29T06:01:34.786Z,13.50
2023-01-29T06:04:01.695Z,14.95
2023-01-29T06:06:28.072Z,16.30
2023-01-29T06:08:55.925Z,15.32
2023-01-29T06:11:22.273Z,15.15
2023-01-29T06:13:48.858Z,16.30
2023-01-29T06:16:16.428Z,15.00
2023-01-29T06:18:43.197Z,17.03
2023-01-29T06:21:13.189Z,16.60
2023-01-29T06:23:39.907Z,21.00
2023-01-29T06:26:08.881Z,25.27
2023-01-29T06:28:35.251Z,22.60
2023-01-29T06:31:22.001Z,26.20
2023-01-29T06:33:49.961Z,18.27
2023-01-29T06:36:16.360Z,19.00
2023-01-29T06:38:42.886Z,19.00
2023-01-29T06:41:11.267Z,17.55
2023-01-29T06:43:38.749Z,15.97
2023-01-29T06:46:07.544Z,18.85
2023-01-29T06:48:33.998Z,17.88
2023-01-29T06:51:08.227Z,14.48
2023-01-29T06:53:36.093Z,15.15
2023-01-29T06:56:03.343Z,15.40
2023-01-29T06:58:29.838Z,17.00
2023-01-29T07:01:04.022Z,15.35
2023-01-29T07:03:30.378Z,15.20
2023-01-29T07:05:56.806Z,16.45
2023-01-29T07:08:23.140Z,16.87
2023-01-29T07:10:50.573Z,16.77
2023-01-29T07:13:17.332Z,15.10
2023-01-29T07:15:44.499Z,13.48
2023-01-29T07:18:13.454Z,14.18
2023-01-29T07:20:41.783Z,15.70
2023-01-29T07:23:13.415Z,16.13
2023-01-29T07:25:40.681Z,15.13
2023-01-29T07:28:07.848Z,15.98
2023-01-29T07:30:34.755Z,16.33
2023-01-29T07:33:07.427Z,14.10
2023-01-29T07:35:39.123Z,13.77
2023-01-29T07:38:06.176Z,17.02
2023-01-29T07:40:32.535Z,15.38
2023-01-29T07:43:03.694Z,17.08
2023-01-29T07:45:31.063Z,15.37
2023-01-29T07:47:57.470Z,16.17
2023-01-29T07:50:25.854Z,14.60
2023-01-29T07:52:54.362Z,14.05
2023-01-29T07:55:20.785Z,15.40
2023-01-29T07:57:47.649Z,13.97
2023-01-29T08:00:15.384Z,13.82
2023-01-29T08:02:42.090Z,14.05
2023-01-29T08:05:08.795Z,15.35
2023-01-29T08:07:35.131Z,15.18
2023-01-29T08:10:01.519Z,14.27
2023-01-29T08:12:27.933Z,14.35
2023-01-29T08:14:54.279Z,14.20
2023-01-29T08:17:20.711Z,11.75
2023-01-29T08:19:47.069Z,12.90
2023-01-29T08:22:15.219Z,13.70
2023-01-29T08:24:53.572Z,13.70
2023-01-29T08:27:26.340Z,12.77
2023-01-29T08:29:52.700Z,12.55
2023-01-29T08:32:19.092Z,12.73
2023-01-29T08:34:45.443Z,10.90
2023-01-29T08:37:11.834Z,11.30
2023-01-29T08:39:38.179Z,11.65
2023-01-29T08:42:04.559Z,12.27
2023-01-29T08:44:30.916Z,13.38
2023-01-29T08:46:57.277Z,9.97
2023-01-29T08:49:23.834Z,12.45
2023-01-29T08:51:51.486Z,12.98
2023-01-29T08:54:17.904Z,11.85
2023-01-29T08:56:44.278Z,11.65
2023-01-29T08:59:10.984Z,13.63
2023-01-29T09:01:37.354Z,13.27
2023-01-29T09:04:03.711Z,17.60
2023-01-29T09:06:30.153Z,10.85
2023-01-29T09:08:56.723Z,11.45
2023-01-29T09:11:23.145Z,10.30
2023-01-29T09:13:49.520Z,10.38
2023-01-29T09:16:15.967Z,9.90
2023-01-29T09:18:42.348Z,10.73
2023-01-29T09:21:08.782Z,10.45
2023-01-29T09:23:35.178Z,9.70
2023-01-29T09:26:01.615Z,10.95
2023-01-29T09:28:28.362Z,9.55
2023-01-29T09:30:54.860Z,11.32
2023-01-29T09:33:21.320Z,11.48
2023-01-29T09:35:47.680Z,12.50
2023-01-29T09:38:14.587Z,10.80
2023-01-29T09:41:13.106Z,10.90
2023-01-29T09:43:45.091Z,12.07
2023-01-29T09:46:23.194Z,11.23
2023-01-29T09:49:14.676Z,13.50
2023-01-29T09:51:44.936Z,12.55
2023-01-29T09:54:23.120Z,11.45
2023-01-29T09:56:53.184Z,12.05
2023-01-29T09:59:23.166Z,10.98
2023-01-29T10:01:56.320Z,11.87
2023-01-29T10:04:52.722Z,12.23
2023-01-29T10:07:37.958Z,11.75
2023-01-29T10:10:12.478Z,11.73
2023-01-29T10:12:58.469Z,13.27
2023-01-29T10:15:38.834Z,10.63
2023-01-29T10:18:34.989Z,12.10
2023-01-29T10:21:08.469Z,10.18
2023-01-29T10:23:40.077Z,11.82
2023-01-29T10:26:12.156Z,12.00
2023-01-29T10:28:45.985Z,11.37
2023-01-29T10:31:24.414Z,11.93
2023-01-29T10:34:02.153Z,10.55
2023-01-29T10:36:50.257Z,11.55
2023-01-29T10:39:21.869Z,12.07
2023-01-29T10:42:05.809Z,11.50
2023-01-29T10:44:54.273Z,10.35
2023-01-29T10:47:28.627Z,12.15
2023-01-29T10:50:16.324Z,13.55
2023-01-29T10:53:01.419Z,13.25
2023-01-29T10:55:36.715Z,11.47
2023-01-29T10:58:30.097Z,12.48
2023-01-29T11:00:56.581Z,12.32
2023-01-29T11:03:28.854Z,10.10
2023-01-29T11:06:17.599Z,11.52
2023-01-29T11:09:14.299Z,9.30
2023-01-29T11:11:52.701Z,13.05
2023-01-29T11:14:24.535Z,13.43
2023-01-29T11:16:51.186Z,11.32
2023-01-29T11:19:17.659Z,9.75
2023-01-29T11:21:58.542Z,9.83
2023-01-29T11:24:25.737Z,12.52
2023-01-29T11:26:55.437Z,10.65
2023-01-29T11:29:33.931Z,11.63
2023-01-29T11:32:03.753Z,10.70
2023-01-29T11:34:33.491Z,11.00
2023-01-29T11:37:16.826Z,11.10
2023-01-29T11:39:47.076Z,9.93
2023-01-29T11:42:22.106Z,10.40
2023-01-29T11:44:49.040Z,11.07
2023-01-29T11:47:26.013Z,9.20
2023-01-29T11:49:57.893Z,11.07
2023-01-29T11:52:27.633Z,11.38
2023-01-29T11:55:05.324Z,10.90
2023-01-29T11:57:38.761Z,11.73
2023-01-29T12:00:17.936Z,9.17
2023-01-29T12:02:54.198Z,10.52
2023-01-29T12:05:25.987Z,11.18
2023-01-29T12:07:55.954Z,9.13
2023-01-29T12:10:40.922Z,12.40
2023-01-29T12:13:09.969Z,11.50
2023-01-29T12:15:41.252Z,9.73
2023-01-29T12:18:29.880Z,10.80
2023-01-29T12:21:03.105Z,8.90
2023-01-29T12:23:49.925Z,11.10
2023-01-29T12:26:24.147Z,10.40
2023-01-29T12:29:09.213Z,9.75
2023-01-29T12:31:44.072Z,9.13
2023-01-29T12:34:19.698Z,9.15
2023-01-29T12:37:12.218Z,10.32
2023-01-29T12:39:38.656Z,11.53
2023-01-29T12:42:18.907Z,9.68
2023-01-29T12:45:08.624Z,14.25
2023-01-29T12:47:48.876Z,9.32
2023-01-29T12:50:22.460Z,10.07
2023-01-29T12:52:52.718Z,12.43
2023-01-29T12:55:37.949Z,11.90
2023-01-29T12:58:29.857Z,9.77
2023-01-29T13:01:03.135Z,8.85
2023-01-29T13:03:37.188Z,12.10
2023-01-29T13:06:10.153Z,10.10
2023-01-29T13:08:51.405Z,10.05
2023-01-29T13:11:26.037Z,14.15
2023-01-29T13:14:04.051Z,17.60
2023-01-29T13:16:37.486Z,10.20
2023-01-29T13:19:12.407Z,13.50
2023-01-29T13:21:42.172Z,13.32
2023-01-29T13:24:16.204Z,11.65
2023-01-29T13:26:47.006Z,10.73
2023-01-29T13:29:23.463Z,14.10
2023-01-29T13:31:52.943Z,12.20
2023-01-29T13:34:29.401Z,13.27
2023-01-29T13:36:59.466Z,12.85
2023-01-29T13:39:34.003Z,16.58
2023-01-29T13:42:02.754Z,14.20
2023-01-29T13:44:39.233Z,20.57
2023-01-29T13:47:11.608Z,15.55
2023-01-29T13:49:46.293Z,13.27
2023-01-29T13:52:17.296Z,13.85
2023-01-29T13:54:52.945Z,15.20
2023-01-29T13:57:48.783Z,13.27
2023-01-29T14:00:21.342Z,13.45
2023-01-29T14:02:56.712Z,14.68
2023-01-29T14:05:42.496Z,12.48
2023-01-29T14:08:08.766Z,11.20
2023-01-29T14:10:37.339Z,11.30
2023-01-29T14:13:03.630Z,12.20
2023-01-29T14:15:35.181Z,12.07
2023-01-29T14:18:22.023Z,9.73
2023-01-29T14:20:48.305Z,12.48
2023-01-29T14:23:41.138Z,13.33
2023-01-29T14:26:34.269Z,9.65
2023-01-29T14:29:12.952Z,12.15
2023-01-29T14:31:53.812Z,12.02
2023-01-29T14:34:33.751Z,12.80
2023-01-29T14:37:43.473Z,12.50
2023-01-29T14:40:19.028Z,11.10
2023-01-29T14:43:00.513Z,11.07
2023-01-29T14:45:29.171Z,10.70
2023-01-29T14:48:18.577Z,10.80
2023-01-29T14:50:50.749Z,8.67
2023-01-29T14:53:22.971Z,9.00
2023-01-29T14:56:09.973Z,10.90
2023-01-29T14:58:43.718Z,10.70
2023-01-29T15:01:30.671Z,10.43
2023-01-29T15:04:04.602Z,11.87
2023-01-29T15:06:43.216Z,13.32
2023-01-29T15:09:39.060Z,33.35
2023-01-29T15:12:43.657Z,22.98
2023-01-29T15:15:25.334Z,24.67
2023-01-29T15:18:07.990Z,23.20
2023-01-29T15:20:40.188Z,22.48
2023-01-29T15:23:43.333Z,26.40
2023-01-29T15:26:17.372Z,14.70
2023-01-29T15:28:47.233Z,18.20
2023-01-29T15:31:18.426Z,14.23
2023-01-29T15:33:46.921Z,15.82
2023-01-29T15:36:20.727Z,17.08
2023-01-29T15:38:47.148Z,16.15
2023-01-29T15:41:19.610Z,14.48
2023-01-29T15:43:48.550Z,17.60
2023-01-29T15:46:27.005Z,16.50
2023-01-29T15:48:55.849Z,20.23
2023-01-29T15:51:25.253Z,19.05
2023-01-29T15:54:06.644Z,13.35
2023-01-29T15:56:51.666Z,13.13
2023-01-29T15:59:22.507Z,13.75
2023-01-29T16:01:48.958Z,17.40
2023-01-29T16:04:22.352Z,15.38
2023-01-29T16:06:52.676Z,12.55
2023-01-29T16:09:23.561Z,17.03
2023-01-29T16:11:51.297Z,16.02
2023-01-29T16:14:21.764Z,15.27
2023-01-29T16:16:48.605Z,14.63
2023-01-29T16:19:24.396Z,13.60
2023-01-29T16:21:57.011Z,12.93
2023-01-29T16:24:24.934Z,13.13
2023-01-29T16:26:56.616Z,12.50
2023-01-29T16:29:29.772Z,12.35
2023-01-29T16:32:01.677Z,12.40
2023-01-29T16:34:34.020Z,11.93
2023-01-29T16:37:02.987Z,12.30
2023-01-29T16:39:33.622Z,13.00
2023-01-29T16:42:12.311Z,11.75
2023-01-29T16:44:46.254Z,11.65
2023-01-29T16:47:15.598Z,11.80
2023-01-29T16:49:49.688Z,10.95
2023-01-29T16:52:24.895Z,13.43
2023-01-29T16:54:52.089Z,11.48
2023-01-29T16:57:25.178Z,11.23
2023-01-29T16:59:59.084Z,12.50
2023-01-29T17:02:36.227Z,15.80
2023-01-29T17:05:06.420Z,15.48
2023-01-29T17:07:34.662Z,14.27
2023-01-29T17:10:04.212Z,11.52
2023-01-29T17:12:32.087Z,12.20
2023-01-29T17:15:02.216Z,13.98
2023-01-29T17:17:34.282Z,16.05
2023-01-29T17:20:15.733Z,16.75
2023-01-29T17:22:44.544Z,17.20
2023-01-29T17:25:15.261Z,15.73
2023-01-29T17:27:44.200Z,15.43
2023-01-29T17:30:18.113Z,12.07
2023-01-29T17:32:47.474Z,12.80
2023-01-29T17:35:15.944Z,13.20
2023-01-29T17:37:43.438Z,13.53
2023-01-29T17:40:21.192Z,12.55
2023-01-29T17:42:47.582Z,11.25
2023-01-29T17:45:14.063Z,13.77
2023-01-29T17:47:40.725Z,13.50
2023-01-29T17:50:28.932Z,15.63
2023-01-29T17:52:55.337Z,13.10
2023-01-29T17:55:21.873Z,18.55
2023-01-29T17:57:48.332Z,23.92
2023-01-29T18:00:18.479Z,31.23
2023-01-29T18:02:45.007Z,31.17
2023-01-29T18:05:12.708Z,26.55
2023-01-29T18:07:40.923Z,28.23
2023-01-29T18:10:12.798Z,25.38
2023-01-29T18:12:39.144Z,27.00
2023-01-29T18:15:05.976Z,28.50
2023-01-29T18:17:32.545Z,24.77
2023-01-29T18:19:59.882Z,31.73
2023-01-29T18:22:26.314Z,27.50
2023-01-29T18:24:52.681Z,29.40
2023-01-29T18:27:19.409Z,26.07
2023-01-29T18:29:45.817Z,27.13
2023-01-29T18:32:12.158Z,30.30
2023-01-29T18:34:38.584Z,38.83
2023-01-29T18:37:04.970Z,35.42
2023-01-29T18:39:31.399Z,31.30
2023-01-29T18:41:57.808Z,29.20
2023-01-29T18:44:24.160Z,29.77
2023-01-29T18:46:50.499Z,28.58
2023-01-29T18:49:16.923Z,22.33
2023-01-29T18:51:43.280Z,23.53
2023-01-29T18:54:12.808Z,25.63
2023-01-29T18:56:39.166Z,24.30
2023-01-29T18:59:25.517Z,27.63
2023-01-29T19:01:51.941Z,26.10
2023-01-29T19:04:18.418Z,26.60
2023-01-29T19:06:44.754Z,26.45
2023-01-29T19:09:11.169Z,28.77
2023-01-29T19:11:37.540Z,31.65
2023-01-29T19:14:03.903Z,32.78
2023-01-29T19:16:30.248Z,34.33
2023-01-29T19:18:56.661Z,28.77
2023-01-29T19:21:23.874Z,31.27
2023-01-29T19:23:50.302Z,33.53
2023-01-29T19:26:16.852Z,31.52
2023-01-29T19:28:43.227Z,33.50
2023-01-29T19:31:09.724Z,35.95
2023-01-29T19:33:36.193Z,33.10
2023-01-29T19:36:02.800Z,34.65
2023-01-29T19:38:33.208Z,36.45
2023-01-29T19:41:00.280Z,33.87
2023-01-29T19:43:30.805Z,32.05
2023-01-29T19:45:59.355Z,32.63
2023-01-29T19:48:26.558Z,32.38
2023-01-29T19:50:57.852Z,29.92
2023-01-29T19:53:24.758Z,30.63
2023-01-29T19:56:02.807Z,36.92
2023-01-29T19:58:29.641Z,31.38
2023-01-29T20:01:04.442Z,33.35
2023-01-29T20:03:31.133Z,34.65
2023-01-29T20:06:06.656Z,32.17
2023-01-29T20:08:34.084Z,35.92
2023-01-29T20:11:01.003Z,30.48
2023-01-29T20:13:27.764Z,34.70
2023-01-29T20:15:55.787Z,32.13
2023-01-29T20:18:22.230Z,29.23
2023-01-29T20:20:50.549Z,30.23
2023-01-29T20:23:35.215Z,29.63
2023-01-29T20:26:03.730Z,30.90
2023-01-29T20:28:30.179Z,32.08
2023-01-29T20:30:58.089Z,32.20
2023-01-29T20:33:25.250Z,30.70
2023-01-29T20:35:56.829Z,31.95
2023-01-29T20:38:25.483Z,29.75
2023-01-29T20:40:51.870Z,31.98
2023-01-29T20:43:18.225Z,36.50
2023-01-29T20:45:44.603Z,29.90
2023-01-29T20:48:11.026Z,28.98
2023-01-29T20:50:37.423Z,31.92
2023-01-29T20:53:03.926Z,30.60
2023-01-29T20:55:31.476Z,30.47
2023-01-29T20:58:05.863Z,31.48
2023-01-29T21:00:33.359Z,31.40
2023-01-29T21:02:59.770Z,30.48
2023-01-29T21:05:26.132Z,30.00
2023-01-29T21:07:52.478Z,27.80
2023-01-29T21:10:19.223Z,26.45
2023-01-29T21:12:45.780Z,30.73
2023-01-29T21:15:12.186Z,28.02
2023-01-29T21:17:38.572Z,31.10
2023-01-29T21:20:07.292Z,29.07
2023-01-29T21:22:33.861Z,31.05
2023-01-29T21:25:00.208Z,28.35
2023-01-29T21:27:26.654Z,28.70
2023-01-29T21:29:53.013Z,35.78
2023-01-29T21:32:19.420Z,29.93
2023-01-29T21:34:45.785Z,32.05
2023-01-29T21:37:12.243Z,29.42
2023-01-29T21:39:38.598Z,26.80
2023-01-29T21:42:23.719Z,30.42
2023-01-29T21:44:50.052Z,30.47
2023-01-29T21:47:16.426Z,30.20
2023-01-29T21:49:44.228Z,31.25
2023-01-29T21:52:12.598Z,32.85
2023-01-29T21:54:40.032Z,33.85
2023-01-29T21:57:11.582Z,32.87
2023-01-29T21:59:38.103Z,29.52
2023-01-29T22:02:04.608Z,32.20
2023-01-29T22:04:31.022Z,36.13
2023-01-29T22:06:57.453Z,29.33
2023-01-29T22:09:24.007Z,30.83
2023-01-29T22:11:50.488Z,28.52
2023-01-29T22:14:19.612Z,30.17
2023-01-29T22:16:46.102Z,28.73
2023-01-29T22:19:13.586Z,30.00
2023-01-29T22:21:40.000Z,29.53
2023-01-29T22:24:06.766Z,28.02
2023-01-29T22:26:33.655Z,26.38
2023-01-29T22:29:00.053Z,31.38
2023-01-29T22:31:26.541Z,29.40
2023-01-29T22:33:53.419Z,32.73
2023-01-29T22:36:19.948Z,30.10
2023-01-29T22:38:46.624Z,30.08
2023-01-29T22:41:13.576Z,28.75
2023-01-29T22:43:40.979Z,26.80
2023-01-29T22:46:11.619Z,26.43
2023-01-29T22:48:38.120Z,29.13
2023-01-29T22:51:10.817Z,26.38
2023-01-29T22:53:39.076Z,24.13
2023-01-29T22:56:06.380Z,24.73
2023-01-29T22:58:33.164Z,22.97
2023-01-29T23:00:59.905Z,26.80
2023-01-29T23:03:26.307Z,24.13
2023-01-29T23:05:52.770Z,22.88
2023-01-29T23:08:19.137Z,22.48
2023-01-29T23:10:45.731Z,20.87
2023-01-29T23:13:12.093Z,23.20
2023-01-29T23:15:39.008Z,22.83
2023-01-29T23:18:05.461Z,22.92
2023-01-29T23:20:32.212Z,21.25
2023-01-29T23:22:58.584Z,21.50
2023-01-29T23:25:44.923Z,21.33
2023-01-29T23:28:11.332Z,19.92
2023-01-29T23:30:37.696Z,24.95
2023-01-29T23:33:04.241Z,20.90
2023-01-29T23:35:31.007Z,22.00
2023-01-29T23:37:57.363Z,21.67
2023-01-29T23:40:23.702Z,21.63
2023-01-29T23:42:50.085Z,22.90
2023-01-29T23:45:16.443Z,22.13
2023-01-29T23:47:42.888Z,22.87
2023-01-29T23:50:10.037Z,24.33
2023-01-29T23:52:36.453Z,21.52
2023-01-29T23:55:03.054Z,22.83
2023-01-29T23:57:29.434Z,24.65
2023-01-29T23:59:55.772Z,24.73
